Thursday, September 20, 2018, 10:10 PM EDT
Back to Local

KAUG, Augusta State Airport

Location: Augusta, ME, United States Lat: 44.317
Local Time: 10:10 PM EDT ( 2:10 GMT) Lon: -69.8
Time Zone: US/Eastern Elev: 351 ft

Show me the last for .
Show Decoded

2018-09-20 21:53 METAR KAUG 210153Z AUTO 00000KT 10SM OVC055 12/11 A3031 RMK AO2 SLP267 T01220111
                 =
2018-09-20 20:53 METAR KAUG 210053Z AUTO VRB03KT 10SM BKN055 12/11 A3032 RMK AO2 SLP270 T01220111
                 =
2018-09-20 19:53 METAR KAUG 202353Z AUTO 17004KT 10SM CLR 13/11 A3030 RMK AO2 SLP260 T01330111
                 10178 20133 53012 =
2018-09-20 18:53 METAR KAUG 202253Z AUTO 18004KT 10SM FEW015 13/12 A3028 RMK AO2 SLP256 T01330117
                 =
2018-09-20 17:53 METAR KAUG 202153Z AUTO VRB03KT 10SM CLR 15/12 A3027 RMK AO2 SLP250 T01500117 =
2018-09-20 17:11 METAR KAUG 202111Z AUTO 20006KT 10SM FEW020 BKN038 16/12 A3026 RMK AO2 T01610117
                 =
2018-09-20 16:53 METAR KAUG 202053Z AUTO 18006KT 10SM SCT020 BKN029 16/12 A3026 RMK AO2 SLP247
                 T01610117 58002 =
2018-09-20 16:44 METAR KAUG 202044Z AUTO 17006KT 10SM FEW021 BKN029 17/12 A3026 RMK AO2 T01670117
                 =
2018-09-20 16:34 METAR KAUG 202034Z AUTO 15009KT 10SM BKN030 17/11 A3026 RMK AO2 T01670111 =
2018-09-20 16:00 METAR KAUG 202000Z AUTO VRB03KT 10SM BKN026 OVC042 17/11 A3026 RMK AO2 T01670106
                 =
2018-09-20 15:53 METAR KAUG 201953Z AUTO 22003KT 10SM SCT026 BKN042 17/11 A3026 RMK AO2 SLP249
                 T01720106 =
2018-09-20 15:39 METAR KAUG 201939Z AUTO 29005KT 10SM BKN028 17/11 A3027 RMK AO2 T01720106 =
2018-09-20 14:53 METAR KAUG 201853Z AUTO VRB03KT 10SM FEW027 OVC055 17/10 A3027 RMK AO2 SLP250
                 T01670100 =
2018-09-20 13:53 METAR KAUG 201753Z AUTO 13004KT 10SM FEW026 16/10 A3027 RMK AO2 SLP250 T01610100
                 10161 20111 57013 =
2018-09-20 12:53 METAR KAUG 201653Z AUTO VRB03KT 10SM FEW019 OVC055 16/10 A3028 RMK AO2 SLP253
                 T01560100 =
2018-09-20 11:53 METAR KAUG 201553Z AUTO VRB03KT 10SM OVC050 14/10 A3030 RMK AO2 SLP259 T01390100
                 =
2018-09-20 10:53 METAR KAUG 201453Z AUTO VRB03KT 10SM OVC050 14/09 A3031 RMK AO2 SLP263 T01390094
                 51019 =
2018-09-20 09:53 METAR KAUG 201353Z AUTO 03005KT 10SM FEW014 OVC050 13/09 A3030 RMK AO2 SLP261
                 T01280089 =
2018-09-20 08:53 METAR KAUG 201253Z AUTO 36004KT 10SM OVC050 12/09 A3028 RMK AO2 SLP253 T01220089
                 =
2018-09-20 07:53 METAR KAUG 201153Z AUTO 04007KT 10SM OVC050 11/09 A3025 RMK AO2 SLP245 T01110089
                 10133 20106 53015 =
2018-09-20 06:53 METAR KAUG 201053Z AUTO 04007KT 10SM OVC050 11/09 A3023 RMK AO2 SLP239 T01110094
                 =
2018-09-20 06:37 METAR KAUG 201037Z AUTO 03006KT 10SM FEW008 OVC050 11/09 A3023 RMK AO2 T01110094
                 =
2018-09-20 05:53 METAR KAUG 200953Z AUTO 03008KT 10SM OVC048 12/10 A3021 RMK AO2 SLP231 T01170100
                 =
2018-09-20 05:35 METAR KAUG 200935Z AUTO 04010KT 10SM SCT011 OVC049 12/10 A3021 RMK AO2 T01170100
                 =
2018-09-20 04:53 METAR KAUG 200853Z AUTO 02006KT 10SM OVC013 12/11 A3021 RMK AO2 SLP229 T01220106
                 53009 =
2018-09-20 04:03 METAR KAUG 200803Z AUTO 02005KT 10SM OVC014 13/11 A3020 RMK AO2 T01280111 =
2018-09-20 03:53 METAR KAUG 200753Z AUTO 03005KT 10SM OVC016 13/11 A3020 RMK AO2 SLP226 T01280111
                 =
2018-09-20 03:43 METAR KAUG 200743Z AUTO 03003KT 10SM BKN016 OVC038 13/11 A3019 RMK AO2 T01280111
                 =
2018-09-20 02:53 METAR KAUG 200653Z AUTO 07003KT 10SM FEW024 OVC037 13/11 A3018 RMK AO2 SLP220
                 T01280106 =
2018-09-20 02:45 METAR KAUG 200645Z AUTO 07006KT 10SM SCT024 OVC037 13/11 A3018 RMK AO2 T01280106
                 =
2018-09-20 02:06 METAR KAUG 200606Z AUTO 07007KT 10SM BKN017 OVC032 13/11 A3018 RMK AO2 T01330106
                 =
2018-09-20 01:53 METAR KAUG 200553Z AUTO 06008KT 10SM FEW019 OVC032 13/11 A3018 RMK AO2 SLP220
                 T01330106 10139 20133 53010 =
2018-09-20 01:07 METAR KAUG 200507Z AUTO 03004KT 10SM OVC030 13/12 A3017 RMK AO2 T01330117 =
2018-09-20 00:53 METAR KAUG 200453Z AUTO 01004KT 10SM OVC029 13/12 A3017 RMK AO2 SLP216 T01330117
                 401670111 =
2018-09-20 00:09 METAR KAUG 200409Z AUTO 03004KT 9SM BKN027 OVC037 13/12 A3016 RMK AO2 T01330117
                 =
2018-09-19 23:53 METAR KAUG 200353Z AUTO 03004KT 10SM FEW030 OVC042 13/12 A3016 RMK AO2 SLP214
                 T01330117 =
2018-09-19 22:53 METAR KAUG 200253Z AUTO 04007KT 10SM OVC046 13/12 A3015 RMK AO2 SLP210 T01330117
                 51014 =

Support USWX by starting your Amazon purchase here.